Time;durP1;ratioP1;P1;durP2;ratioP2;P2;SDS_P1;SDS_P2;PMS_P1;PMS_P2;Temp;Humidity;BMP_temperature;BMP_pressure;BME280_temperature;BME280_humidity;BME280_pressure;Samples;Min_cycle;Max_cycle;Signal;HPM_P1;HPM_P2
2021/06/26 00:01:28;;;;;;;17.27;11.07;;;;;;;19.28;58.58;101813.59;5024685;28;123707;-70
2021/06/26 00:03:55;;;;;;;17.17;12.13;;;;;;;19.29;58.58;101815.28;5025703;28;119744;-70
2021/06/26 00:06:23;;;;;;;17.30;11.02;;;;;;;19.30;58.69;101811.66;5025178;28;118437;-70
2021/06/26 00:08:54;;;;;;;17.05;11.50;;;;;;;19.30;58.79;101801.75;5018742;28;123946;-69
2021/06/26 00:11:21;;;;;;;16.95;11.02;;;;;;;19.30;58.87;101800.91;5018423;28;124709;-69
2021/06/26 00:13:48;;;;;;;17.23;11.30;;;;;;;19.29;58.77;101804.53;5024137;28;119247;-69
2021/06/26 00:16:15;;;;;;;17.50;11.35;;;;;;;19.27;58.84;101796.63;5020532;28;119476;-69
2021/06/26 00:18:42;;;;;;;18.67;12.10;;;;;;;19.25;59.01;101796.72;5013701;28;124117;-69
2021/06/26 00:21:10;;;;;;;20.77;12.88;;;;;;;19.24;58.92;101792.28;5019848;28;124781;-69
2021/06/26 00:23:37;;;;;;;20.65;12.43;;;;;;;19.24;59.11;101797.66;5019773;28;119846;-69
2021/06/26 00:26:19;;;;;;;19.00;13.00;;;;;;;19.24;59.27;101794.97;5021860;28;119361;-70
2021/06/26 00:28:46;;;;;;;18.88;13.50;;;;;;;19.27;59.02;101796.63;5021746;27;124876;-70
2021/06/26 00:31:14;;;;;;;20.63;13.60;;;;;;;19.28;59.17;101797.47;5009721;28;122782;-70
2021/06/26 00:33:41;;;;;;;21.48;13.05;;;;;;;19.28;59.21;101792.09;5024714;28;119647;-70
2021/06/26 00:36:09;;;;;;;20.52;13.20;;;;;;;19.29;59.38;101789.31;5023764;28;119100;-69
2021/06/26 00:38:36;;;;;;;20.45;13.13;;;;;;;19.30;59.38;101801.75;5020363;28;124912;-69
2021/06/26 00:41:04;;;;;;;21.90;13.05;;;;;;;19.31;59.30;101791.88;5024354;28;124033;-69
2021/06/26 00:43:31;;;;;;;20.33;13.02;;;;;;;19.31;59.29;101791.88;5019233;28;121138;-69
2021/06/26 00:46:00;;;;;;;22.30;13.82;;;;;;;19.32;59.31;101794.47;5023882;28;120744;-69
2021/06/26 00:48:28;;;;;;;20.65;13.20;;;;;;;19.33;59.14;101795.34;5025857;28;126029;-70
2021/06/26 00:50:55;;;;;;;24.75;14.02;;;;;;;19.33;59.18;101795.34;5018276;27;124324;-70
2021/06/26 00:53:22;;;;;;;22.10;14.13;;;;;;;19.30;59.31;101795.53;5019532;28;119384;-69
2021/06/26 00:55:53;;;;;;;22.65;14.95;;;;;;;19.28;59.44;101800.16;5026024;28;119079;-70
2021/06/26 00:58:22;;;;;;;23.52;13.98;;;;;;;19.25;59.40;101794.03;5026445;27;124854;-69
2021/06/26 01:00:51;;;;;;;24.23;14.18;;;;;;;19.23;59.58;101797.75;5027282;28;123779;-70
2021/06/26 01:03:19;;;;;;;23.88;13.93;;;;;;;19.22;59.76;101799.59;5020133;28;119370;-69
2021/06/26 01:05:47;;;;;;;23.75;14.05;;;;;;;19.22;59.56;101799.59;5017507;28;119106;-69
2021/06/26 01:08:14;;;;;;;21.90;14.00;;;;;;;19.22;59.57;101804.97;5016888;28;123491;-69
2021/06/26 01:10:42;;;;;;;23.25;14.00;;;;;;;19.23;59.40;101806.69;5016034;27;123907;-69
2021/06/26 01:13:10;;;;;;;20.95;13.02;;;;;;;19.23;59.38;101801.31;5020723;28;119539;-69
2021/06/26 01:15:37;;;;;;;18.55;12.95;;;;;;;19.23;59.22;101806.69;5023875;28;119808;-69
2021/06/26 01:18:04;;;;;;;21.48;12.77;;;;;;;19.22;59.36;101804.97;5020077;28;124261;-69
2021/06/26 01:20:31;;;;;;;20.75;13.18;;;;;;;19.21;59.46;101803.25;5024853;28;124275;-69
2021/06/26 01:23:00;;;;;;;20.83;13.38;;;;;;;19.20;59.17;101806.88;5011046;28;120032;-70
2021/06/26 01:25:29;;;;;;;19.88;12.50;;;;;;;19.19;59.27;101810.56;5021907;27;119614;-69
2021/06/26 01:27:59;;;;;;;19.15;12.27;;;;;;;19.18;59.01;101798.06;5023994;28;124451;-69
2021/06/26 01:30:31;;;;;;;20.17;12.55;;;;;;;19.17;59.06;101800.84;5026091;28;124077;-69
2021/06/26 01:33:00;;;;;;;20.73;13.35;;;;;;;19.15;59.08;101795.56;5018174;28;120277;-69
2021/06/26 01:35:28;;;;;;;19.17;12.27;;;;;;;19.13;59.10;101800.19;5022592;28;120204;-69
2021/06/26 01:37:56;;;;;;;19.05;12.82;;;;;;;19.11;59.13;101791.38;5026118;28;124208;-70
2021/06/26 01:40:26;;;;;;;19.45;12.20;;;;;;;19.09;59.02;101787.94;5028410;28;96879;-70
2021/06/26 01:42:55;;;;;;;16.90;11.25;;;;;;;19.08;58.94;101791.59;5019058;28;119058;-70
2021/06/26 01:45:24;;;;;;;18.77;11.48;;;;;;;19.06;58.96;101794.38;5014118;28;119850;-70
2021/06/26 01:47:54;;;;;;;17.92;12.32;;;;;;;19.04;58.98;101792.75;5010789;28;123758;-70
2021/06/26 01:50:23;;;;;;;16.27;10.77;;;;;;;19.02;59.04;101797.34;5021224;28;123939;-70
2021/06/26 01:52:51;;;;;;;19.73;12.23;;;;;;;18.99;58.99;101792.22;5011031;28;119967;-70
2021/06/26 01:55:20;;;;;;;15.93;11.30;;;;;;;18.98;58.74;101795.84;5020618;28;118919;-70
2021/06/26 01:57:48;;;;;;;17.73;11.30;;;;;;;18.96;59.00;101797.75;5022245;28;123973;-70
2021/06/26 02:00:18;;;;;;;14.55;10.65;;;;;;;18.95;59.12;101796.03;5018601;27;124681;-70
2021/06/26 02:02:45;;;;;;;17.75;11.13;;;;;;;18.91;59.06;101789.13;5013711;28;119620;-70
2021/06/26 02:05:16;;;;;;;17.17;10.80;;;;;;;18.89;59.27;101797.28;5032544;27;119291;-70
2021/06/26 02:07:47;;;;;;;16.70;10.30;;;;;;;18.86;59.08;101793.00;5026237;27;124773;-70
2021/06/26 02:10:14;;;;;;;17.20;11.38;;;;;;;18.85;59.22;101796.66;5019804;28;123763;-69
2021/06/26 02:12:42;;;;;;;16.52;11.38;;;;;;;18.81;59.13;101800.47;5018726;27;119719;-70
2021/06/26 02:15:10;;;;;;;14.85;10.65;;;;;;;18.78;59.05;101799.78;5019748;28;119271;-70
2021/06/26 02:17:37;;;;;;;15.63;10.43;;;;;;;18.74;59.04;101804.50;5015579;28;123935;-70
2021/06/26 02:20:06;;;;;;;14.07;9.40;;;;;;;18.72;59.03;101811.75;5019502;28;123881;-69
2021/06/26 02:22:34;;;;;;;13.50;9.73;;;;;;;18.69;59.06;101806.59;5012429;28;120148;-69
2021/06/26 02:25:05;;;;;;;14.10;9.07;;;;;;;18.65;58.94;101811.31;5017740;28;120918;-69
2021/06/26 02:27:34;;;;;;;15.10;9.38;;;;;;;18.61;59.02;101807.09;5021780;28;124149;-69
2021/06/26 02:30:03;;;;;;;13.77;9.27;;;;;;;18.59;59.15;101810.81;5001908;28;123080;-69
2021/06/26 02:32:30;;;;;;;13.25;9.25;;;;;;;18.56;59.21;101811.03;5023650;28;119845;-70
2021/06/26 02:34:57;;;;;;;13.43;8.70;;;;;;;18.55;59.16;101814.66;5005195;28;118285;-69
2021/06/26 02:37:25;;;;;;;16.40;10.40;;;;;;;18.52;59.33;101806.81;5015880;28;124966;-69
2021/06/26 02:39:52;;;;;;;15.95;10.25;;;;;;;18.51;59.19;101802.41;5017285;28;124177;-70
2021/06/26 02:42:19;;;;;;;14.23;10.07;;;;;;;18.48;59.20;101804.31;5016252;28;121448;-70
2021/06/26 02:44:46;;;;;;;15.25;9.25;;;;;;;18.46;59.41;101800.03;5023000;28;119267;-69
2021/06/26 02:47:13;;;;;;;14.60;9.48;;;;;;;18.44;59.37;101808.16;5023603;28;123850;-69
2021/06/26 02:49:41;;;;;;;18.48;11.10;;;;;;;18.43;59.53;101801.06;5016638;28;123760;-69
2021/06/26 02:52:08;;;;;;;13.90;9.07;;;;;;;18.42;59.39;101804.72;5012278;28;119409;-70
2021/06/26 02:54:35;;;;;;;12.90;8.38;;;;;;;18.42;59.45;101804.72;5018108;28;119368;-69
2021/06/26 02:57:03;;;;;;;10.93;7.85;;;;;;;18.42;59.38;101804.72;5021663;28;123900;-69
2021/06/26 02:59:30;;;;;;;8.82;6.38;;;;;;;18.40;59.06;101806.63;5025775;28;124055;-70
2021/06/26 03:01:57;;;;;;;7.85;6.00;;;;;;;18.38;59.34;101813.91;5019897;27;119927;-70
2021/06/26 03:04:24;;;;;;;6.95;5.78;;;;;;;18.37;59.09;101812.19;5022474;28;119176;-70
2021/06/26 03:06:51;;;;;;;8.80;5.35;;;;;;;18.35;59.09;101819.47;5021599;28;124449;-70
2021/06/26 03:09:19;;;;;;;8.50;6.05;;;;;;;18.32;59.32;101813.44;5017049;28;124048;-70
2021/06/26 03:11:46;;;;;;;8.10;6.10;;;;;;;18.28;59.08;101808.25;5024720;28;120625;-70
2021/06/26 03:14:13;;;;;;;8.75;6.53;;;;;;;18.26;59.24;101809.31;5017394;28;120268;-69
2021/06/26 03:16:40;;;;;;;11.23;7.65;;;;;;;18.23;59.29;101804.13;5019664;28;125258;-69
2021/06/26 03:19:07;;;;;;;11.95;7.93;;;;;;;18.22;59.20;101802.41;5013116;28;124232;-70
2021/06/26 03:21:34;;;;;;;11.55;7.88;;;;;;;18.22;59.29;101805.09;5013904;28;119327;-69
2021/06/26 03:24:02;;;;;;;11.60;8.05;;;;;;;18.23;59.40;101809.50;5017093;28;119299;-70
2021/06/26 03:26:32;;;;;;;10.85;7.57;;;;;;;18.22;59.28;101802.41;5025090;28;124842;-69
2021/06/26 03:29:01;;;;;;;10.48;7.43;;;;;;;18.23;59.44;101804.13;5016206;28;124158;-69
2021/06/26 03:31:28;;;;;;;10.30;7.15;;;;;;;18.23;59.39;101804.13;5020387;28;119983;-69
2021/06/26 03:33:55;;;;;;;10.75;7.03;;;;;;;18.23;59.44;101809.50;5017590;28;119569;-69
2021/06/26 03:36:24;;;;;;;8.82;6.50;;;;;;;18.22;59.58;101803.28;5018740;28;124741;-69
2021/06/26 03:38:52;;;;;;;11.77;7.40;;;;;;;18.23;59.80;101809.50;5013669;28;124676;-69
2021/06/26 03:41:24;;;;;;;12.18;8.20;;;;;;;18.24;59.40;101808.56;5019560;28;119557;-69
2021/06/26 03:43:52;;;;;;;12.23;8.20;;;;;;;18.24;59.52;101811.22;5024086;27;119408;-69
2021/06/26 03:46:19;;;;;;;11.75;8.15;;;;;;;18.24;59.71;101805.88;5014696;28;123805;-69
2021/06/26 03:48:47;;;;;;;13.23;8.48;;;;;;;18.24;59.66;101812.09;5013002;28;123523;-69
2021/06/26 03:51:14;;;;;;;14.77;8.77;;;;;;;18.26;59.70;101812.00;5020372;28;119685;-69
2021/06/26 03:53:41;;;;;;;13.40;8.82;;;;;;;18.27;59.78;101811.03;5022453;28;118233;-69
2021/06/26 03:56:08;;;;;;;13.45;8.63;;;;;;;18.30;59.63;101810.84;5018149;28;123268;-69
2021/06/26 03:58:35;;;;;;;18.23;11.32;;;;;;;18.33;59.97;101810.66;4999043;28;124120;-69
2021/06/26 04:01:02;;;;;;;20.52;12.35;;;;;;;18.36;60.01;101810.44;5018280;28;120594;-69
2021/06/26 04:03:30;;;;;;;19.48;12.27;;;;;;;18.36;60.17;101810.44;5018198;27;120605;-69
2021/06/26 04:05:57;;;;;;;19.85;12.65;;;;;;;18.38;60.54;101813.91;5018479;28;123459;-69
2021/06/26 04:08:24;;;;;;;19.92;12.30;;;;;;;18.39;60.49;101821.00;5019634;28;124816;-69
2021/06/26 04:10:51;;;;;;;20.27;12.43;;;;;;;18.41;60.66;101821.75;5025223;28;119276;-69
2021/06/26 04:13:18;;;;;;;19.98;12.32;;;;;;;18.44;60.53;101818.91;5024576;28;119314;-68
2021/06/26 04:15:45;;;;;;;19.50;12.52;;;;;;;18.45;60.98;101825.97;5024299;28;124077;-69
2021/06/26 04:18:12;;;;;;;18.48;12.23;;;;;;;18.47;60.85;101818.69;5023928;28;123711;-69
2021/06/26 04:20:40;;;;;;;21.48;13.52;;;;;;;18.51;60.82;101818.50;5021814;28;118603;-68
2021/06/26 04:23:07;;;;;;;21.33;12.15;;;;;;;18.52;61.08;101820.25;5025968;28;119344;-69
2021/06/26 04:25:34;;;;;;;20.15;12.10;;;;;;;18.54;61.21;101812.97;5022935;28;124886;-68
2021/06/26 04:28:06;;;;;;;18.80;12.48;;;;;;;18.55;61.21;101809.31;5022187;28;123681;-68
2021/06/26 04:30:37;;;;;;;21.65;12.43;;;;;;;18.58;61.25;101809.13;5021648;28;118395;-69
2021/06/26 04:33:05;;;;;;;18.83;11.73;;;;;;;18.59;61.33;101809.03;5020270;27;119498;-68
2021/06/26 04:35:32;;;;;;;20.50;12.02;;;;;;;18.64;61.49;101811.41;5022255;28;123665;-68
2021/06/26 04:38:00;;;;;;;20.27;12.65;;;;;;;18.69;61.67;101811.97;5016471;28;123993;-68
2021/06/26 04:40:27;;;;;;;20.45;13.30;;;;;;;18.74;61.50;101807.19;5014038;28;119351;-66
2021/06/26 04:42:56;;;;;;;22.20;12.52;;;;;;;18.78;61.64;101800.66;5020364;28;119269;-66
2021/06/26 04:45:23;;;;;;;20.70;12.80;;;;;;;18.83;61.63;101803.91;5016309;28;124187;-66
2021/06/26 04:47:51;;;;;;;21.27;13.10;;;;;;;18.88;61.80;101805.47;5018773;28;123527;-66
2021/06/26 04:50:18;;;;;;;19.10;12.48;;;;;;;18.95;61.62;101806.75;5018555;28;120568;-66
2021/06/26 04:52:46;;;;;;;22.63;13.05;;;;;;;19.01;61.76;101806.38;5013768;28;119964;-66
2021/06/26 04:55:13;;;;;;;21.23;12.90;;;;;;;19.07;61.76;101805.97;5021384;28;124457;-66
2021/06/26 04:57:40;;;;;;;23.05;13.75;;;;;;;19.13;61.56;101812.78;5018832;27;125947;-66
2021/06/26 05:00:09;;;;;;;23.45;13.20;;;;;;;19.17;61.65;101812.44;5020976;28;119177;-66
2021/06/26 05:02:36;;;;;;;20.92;13.27;;;;;;;19.22;61.47;101810.34;5015319;28;119091;-66
2021/06/26 05:05:04;;;;;;;21.48;13.00;;;;;;;19.29;61.68;101817.97;5019426;28;124369;-66
2021/06/26 05:07:31;;;;;;;19.58;12.60;;;;;;;19.33;61.45;101811.47;5022967;28;124538;-66
2021/06/26 05:09:58;;;;;;;21.67;13.48;;;;;;;19.35;61.53;101812.22;5016874;28;119354;-66
2021/06/26 05:12:26;;;;;;;22.33;13.43;;;;;;;19.37;61.48;101813.81;5022917;28;118714;-66
2021/06/26 05:14:53;;;;;;;20.48;12.82;;;;;;;19.40;61.38;101815.44;5014467;28;124475;-65
2021/06/26 05:17:20;;;;;;;21.15;12.63;;;;;;;19.42;61.49;101810.81;5017161;28;124279;-65
2021/06/26 05:19:47;;;;;;;22.40;13.38;;;;;;;19.44;61.36;101816.97;5021106;28;119401;-66
2021/06/26 05:22:16;;;;;;;21.73;12.95;;;;;;;19.46;61.28;101817.72;5019305;28;119596;-64
2021/06/26 05:24:43;;;;;;;22.00;13.02;;;;;;;19.49;61.56;101803.22;5019781;28;124150;-64
2021/06/26 05:27:11;;;;;;;21.92;13.55;;;;;;;19.51;61.42;101804.81;5019307;28;124005;-63
2021/06/26 05:29:42;;;;;;;21.92;13.32;;;;;;;19.55;61.47;101806.38;5019574;28;118796;-64
2021/06/26 05:32:10;;;;;;;24.50;13.93;;;;;;;19.59;61.47;101807.88;5019339;28;119612;-64
2021/06/26 05:34:40;;;;;;;26.05;14.27;;;;;;;19.64;61.38;101811.09;5011121;28;124601;-65
2021/06/26 05:37:07;;;;;;;21.83;13.32;;;;;;;19.67;61.44;101798.44;5018245;28;124587;-64
2021/06/26 05:39:34;;;;;;;21.95;13.55;;;;;;;19.71;61.43;101799.94;5017822;28;120462;-64
2021/06/26 05:42:02;;;;;;;25.13;14.55;;;;;;;19.75;61.39;101806.84;5024349;28;119912;-64
2021/06/26 05:44:29;;;;;;;25.50;14.45;;;;;;;19.78;61.64;101806.66;5027250;28;124141;-65
2021/06/26 05:46:56;;;;;;;25.10;15.15;;;;;;;19.82;61.53;101818.91;5017967;28;122981;-65
2021/06/26 05:49:24;;;;;;;26.88;15.60;;;;;;;19.90;61.59;101811.19;5015625;28;120291;-65
2021/06/26 05:51:51;;;;;;;31.90;17.60;;;;;;;19.97;61.71;101807.09;5017372;28;119061;-65
2021/06/26 05:54:18;;;;;;;31.45;17.33;;;;;;;20.01;61.76;101813.97;5016977;27;123719;-65
2021/06/26 05:56:45;;;;;;;32.55;18.42;;;;;;;20.06;61.68;101815.47;5024154;28;124008;-65
2021/06/26 05:59:13;;;;;;;33.25;19.45;;;;;;;20.12;61.87;101809.69;5020684;28;118487;-65
2021/06/26 06:01:41;;;;;;;31.08;18.50;;;;;;;20.21;62.01;101803.66;5021121;28;119011;-65
2021/06/26 06:04:08;;;;;;;33.72;18.98;;;;;;;20.29;62.09;101817.44;5014645;28;124103;-65
2021/06/26 06:06:36;;;;;;;34.15;19.33;;;;;;;20.39;62.18;101813.09;5020546;28;123308;-65
2021/06/26 06:09:05;;;;;;;31.30;17.90;;;;;;;20.50;62.27;101814.19;5016826;28;118935;-65
2021/06/26 06:11:33;;;;;;;31.80;17.77;;;;;;;20.63;62.09;101809.69;5020714;28;119773;-65
2021/06/26 06:14:01;;;;;;;29.63;17.92;;;;;;;20.76;62.25;101821.28;5013043;28;123942;-66
2021/06/26 06:16:31;;;;;;;29.65;16.75;;;;;;;20.90;62.13;101816.72;5019521;28;124008;-65
2021/06/26 06:18:58;;;;;;;27.65;16.73;;;;;;;21.04;62.00;101819.25;5019395;28;119096;-65
2021/06/26 06:21:25;;;;;;;27.20;16.10;;;;;;;21.17;61.88;101809.28;5018757;28;119548;-65
2021/06/26 06:23:52;;;;;;;22.98;14.73;;;;;;;21.32;61.44;101817.19;5024134;28;124576;-65
2021/06/26 06:26:19;;;;;;;22.27;14.48;;;;;;;21.43;61.37;101819.94;5020261;28;124574;-65
2021/06/26 06:28:47;;;;;;;24.10;14.52;;;;;;;21.55;61.25;101824.44;5016230;28;120446;-66
2021/06/26 06:31:15;;;;;;;20.27;13.18;;;;;;;21.69;60.92;101830.59;5020326;28;119908;-65
2021/06/26 06:33:42;;;;;;;21.63;13.07;;;;;;;21.81;60.74;101829.66;5020026;28;123051;-65
2021/06/26 06:36:09;;;;;;;20.65;13.85;;;;;;;21.93;60.38;101839.50;5013908;28;123950;-65
2021/06/26 06:38:36;;;;;;;20.25;13.32;;;;;;;22.07;60.42;101829.47;5017844;28;119589;-65
2021/06/26 06:41:05;;;;;;;19.75;13.15;;;;;;;22.20;60.05;101835.63;5018716;28;119551;-65
2021/06/26 06:43:32;;;;;;;20.60;13.13;;;;;;;22.32;59.85;101840.09;5017018;28;124096;-65
2021/06/26 06:46:03;;;;;;;20.20;12.98;;;;;;;22.45;59.88;101834.59;5023637;27;124101;-65
2021/06/26 06:48:30;;;;;;;20.88;13.18;;;;;;;22.58;59.75;101834.44;5017699;28;119654;-65
2021/06/26 06:50:57;;;;;;;19.52;11.43;;;;;;;22.68;58.96;101840.84;5026508;28;119236;-64
2021/06/26 06:53:24;;;;;;;19.52;12.43;;;;;;;22.77;58.81;101843.78;5019217;28;124320;-64
2021/06/26 06:55:51;;;;;;;18.77;12.52;;;;;;;22.86;58.54;101837.63;5019782;28;124265;-64
2021/06/26 06:58:19;;;;;;;18.13;12.00;;;;;;;22.98;58.47;101842.03;5014573;28;119706;-65
2021/06/26 07:00:46;;;;;;;17.70;12.27;;;;;;;23.10;57.98;101840.19;5022908;28;119076;-64
2021/06/26 07:03:14;;;;;;;17.58;11.85;;;;;;;23.18;57.34;101836.84;5018323;28;124068;-64
2021/06/26 07:05:41;;;;;;;16.15;11.88;;;;;;;23.25;57.18;101835.38;5012783;28;123711;-64
2021/06/26 07:08:08;;;;;;;18.77;12.45;;;;;;;23.30;56.33;101835.81;5018905;28;119447;-65
2021/06/26 07:10:35;;;;;;;17.75;12.10;;;;;;;23.34;56.55;101834.59;5019637;28;119115;-64
2021/06/26 07:13:03;;;;;;;16.33;11.10;;;;;;;23.44;56.54;101840.09;5014888;28;124196;-64
2021/06/26 07:15:31;;;;;;;16.38;10.80;;;;;;;23.55;56.40;101844.59;5025291;28;123818;-64
2021/06/26 07:17:59;;;;;;;18.02;12.07;;;;;;;23.66;56.20;101836.44;5023811;28;120322;-65
2021/06/26 07:20:34;;;;;;;15.60;11.07;;;;;;;23.77;55.80;101839.09;5003151;28;120298;-65
2021/06/26 07:23:01;;;;;;;16.67;11.13;;;;;;;23.88;55.74;101833.66;5022250;28;125997;-71
2021/06/26 07:25:28;;;;;;;17.55;11.00;;;;;;;23.97;55.59;101839.25;5013530;28;124649;-70
2021/06/26 07:27:56;;;;;;;16.17;10.85;;;;;;;24.06;55.43;101833.88;5018968;27;119588;-70
2021/06/26 07:30:24;;;;;;;15.50;11.00;;;;;;;24.16;55.11;101839.34;5018305;28;119080;-70
2021/06/26 07:32:51;;;;;;;19.02;12.40;;;;;;;24.27;54.68;101833.84;5021560;28;123226;-70
2021/06/26 07:35:18;;;;;;;19.58;11.95;;;;;;;24.38;54.44;101829.38;5014040;28;123697;-70
2021/06/26 07:37:47;;;;;;;18.52;11.88;;;;;;;24.47;53.92;101825.84;5015633;28;118676;-70
2021/06/26 07:40:16;;;;;;;18.23;12.05;;;;;;;24.55;53.57;101817.91;5018122;28;119190;-70
2021/06/26 07:42:44;;;;;;;18.23;11.82;;;;;;;24.63;53.44;101826.22;5017524;28;123919;-70
2021/06/26 07:45:11;;;;;;;17.33;12.38;;;;;;;24.70;53.24;101825.69;5022531;28;124078;-70
2021/06/26 07:47:39;;;;;;;17.17;11.77;;;;;;;24.77;53.53;101825.00;5028846;28;119917;-70
2021/06/26 07:50:07;;;;;;;18.33;11.32;;;;;;;24.89;53.49;101825.72;5026241;27;119045;-70
2021/06/26 07:52:34;;;;;;;20.48;12.27;;;;;;;25.01;53.05;101813.75;5022596;28;124152;-70
2021/06/26 07:55:01;;;;;;;18.95;11.13;;;;;;;25.14;53.12;101812.66;5023775;28;123972;-70
2021/06/26 07:57:29;;;;;;;14.65;10.75;;;;;;;25.28;53.22;101814.09;5016036;28;119624;-70
2021/06/26 07:59:57;;;;;;;15.43;11.02;;;;;;;25.42;52.84;101817.25;5027767;28;119686;-70
2021/06/26 08:02:24;;;;;;;17.80;11.73;;;;;;;25.52;51.98;101816.41;5020514;28;124312;-70
2021/06/26 08:04:52;;;;;;;14.52;10.45;;;;;;;25.60;52.31;101816.56;5020186;28;124050;-70
2021/06/26 08:07:19;;;;;;;16.42;11.20;;;;;;;25.68;52.06;101808.53;5021121;28;119891;-70
2021/06/26 08:09:47;;;;;;;17.02;11.15;;;;;;;25.78;51.50;101809.38;5025611;28;120048;-70
2021/06/26 08:12:16;;;;;;;17.27;11.25;;;;;;;25.87;51.37;101809.53;5019494;28;123219;-70
2021/06/26 08:14:44;;;;;;;17.17;11.50;;;;;;;25.98;51.15;101812.09;5011753;28;123982;-70
2021/06/26 08:17:27;;;;;;;17.73;11.60;;;;;;;26.08;50.67;101806.63;5019121;28;119309;-70
2021/06/26 08:19:54;;;;;;;15.80;11.35;;;;;;;26.11;50.44;101807.19;5016112;28;119012;-69
2021/06/26 08:22:25;;;;;;;19.13;11.55;;;;;;;26.13;49.81;101805.19;5031151;28;124141;-70
2021/06/26 08:24:52;;;;;;;16.60;11.40;;;;;;;26.17;50.09;101806.59;5028532;28;124629;-70
2021/06/26 08:27:19;;;;;;;15.48;11.35;;;;;;;26.21;49.88;101810.72;5031019;28;119612;-70
2021/06/26 08:29:46;;;;;;;17.27;11.23;;;;;;;26.29;50.12;101809.13;5029674;28;118970;-70
2021/06/26 08:32:14;;;;;;;16.17;11.68;;;;;;;26.36;49.42;101807.53;5030094;28;123989;-70
2021/06/26 08:34:41;;;;;;;16.58;11.05;;;;;;;26.40;49.02;101804.38;5030671;28;123471;-70
2021/06/26 08:37:28;;;;;;;17.63;11.55;;;;;;;26.41;48.85;101802.53;5009422;28;118633;-70
2021/06/26 08:39:55;;;;;;;15.15;11.48;;;;;;;26.43;48.88;101795.09;5015714;28;119244;-70
2021/06/26 08:42:22;;;;;;;21.67;13.00;;;;;;;26.47;48.67;101799.19;5020521;28;123988;-70
2021/06/26 08:44:57;;;;;;;17.88;11.77;;;;;;;26.55;48.85;101799.28;5024215;28;123097;-70
2021/06/26 08:47:25;;;;;;;17.05;11.48;;;;;;;26.63;48.51;101805.88;5029451;28;119249;-70
2021/06/26 08:49:53;;;;;;;16.88;11.63;;;;;;;26.70;48.62;101796.97;5026015;28;118972;-70
2021/06/26 08:52:21;;;;;;;18.30;12.25;;;;;;;26.79;48.12;101804.22;5019796;28;124740;-70
2021/06/26 08:54:53;;;;;;;19.27;12.00;;;;;;;26.87;48.44;101803.44;5018961;28;123069;-70
2021/06/26 08:57:29;;;;;;;17.55;11.90;;;;;;;26.98;47.86;101800.50;5021262;27;120322;-70
2021/06/26 08:59:58;;;;;;;20.45;12.88;;;;;;;27.09;47.72;101795.88;5017348;28;120278;-69
2021/06/26 09:02:28;;;;;;;17.02;11.75;;;;;;;27.13;47.58;101800.00;5023069;28;124315;-70
2021/06/26 09:04:56;;;;;;;18.45;12.68;;;;;;;27.20;46.73;101803.81;5026220;28;124467;-70
2021/06/26 09:07:32;;;;;;;17.27;11.80;;;;;;;27.25;46.83;101801.47;5029338;28;118225;-70
2021/06/26 09:10:11;;;;;;;17.65;12.27;;;;;;;27.27;46.68;101804.91;5023690;28;119213;-70
2021/06/26 09:12:41;;;;;;;17.92;12.20;;;;;;;27.32;46.10;101807.16;5030515;28;124368;-69
2021/06/26 09:15:10;;;;;;;19.15;12.77;;;;;;;27.37;45.48;101810.28;5029605;28;124396;-70
2021/06/26 09:17:37;;;;;;;20.88;14.50;;;;;;;27.40;45.51;101800.94;5018107;28;119659;-68
2021/06/26 09:20:08;;;;;;;17.85;12.75;;;;;;;27.45;46.26;101809.50;5026964;28;119251;-70
2021/06/26 09:22:43;;;;;;;19.50;13.57;;;;;;;27.52;45.23;101807.84;5031080;28;123299;-70
2021/06/26 09:25:25;;;;;;;20.50;14.15;;;;;;;27.61;45.66;101800.59;5028079;28;124477;-70
2021/06/26 09:27:53;;;;;;;19.02;14.15;;;;;;;27.70;45.44;101800.50;5030506;28;119315;-70
2021/06/26 09:30:31;;;;;;;19.58;14.13;;;;;;;27.77;44.72;101796.16;5030823;27;119383;-70
2021/06/26 09:33:11;;;;;;;19.92;14.63;;;;;;;27.82;45.08;101797.53;5029457;28;124751;-70
2021/06/26 09:35:39;;;;;;;20.38;14.43;;;;;;;27.85;44.84;101798.06;5016321;28;123971;-70
2021/06/26 09:38:08;;;;;;;17.50;12.60;;;;;;;27.90;44.09;101805.81;5021295;28;118327;-70
2021/06/26 09:40:42;;;;;;;21.05;14.27;;;;;;;27.96;43.88;101794.25;5031111;27;118829;-71
2021/06/26 09:43:24;;;;;;;20.97;15.23;;;;;;;28.02;44.03;101799.06;5020697;28;124091;-69
2021/06/26 09:46:12;;;;;;;21.70;14.50;;;;;;;28.11;43.62;101791.81;5025441;28;124035;-70
2021/06/26 09:49:03;;;;;;;18.25;12.98;;;;;;;28.15;43.36;101804.94;5014059;28;120552;-71
2021/06/26 09:51:32;;;;;;;20.92;14.75;;;;;;;28.23;42.79;101801.41;5031474;28;119822;-71
2021/06/26 09:54:07;;;;;;;18.40;13.50;;;;;;;28.28;41.95;101803.66;5020404;28;123220;-70
2021/06/26 09:56:45;;;;;;;19.27;12.73;;;;;;;28.33;41.94;101802.16;5029664;28;123272;-71
2021/06/26 09:59:14;;;;;;;19.92;13.48;;;;;;;28.40;41.45;101806.94;5023675;28;119280;-71
2021/06/26 10:01:44;;;;;;;18.75;14.00;;;;;;;28.42;41.48;101803.03;5024926;28;118185;-70
2021/06/26 10:04:14;;;;;;;18.25;13.40;;;;;;;28.46;41.90;101796.25;5022922;28;124291;-70
2021/06/26 10:06:45;;;;;;;19.42;12.40;;;;;;;28.53;41.23;101794.59;5026481;28;124390;-71
2021/06/26 10:09:15;;;;;;;16.08;11.57;;;;;;;28.61;41.17;101790.19;5026441;28;120056;-71
2021/06/26 10:11:42;;;;;;;18.67;12.75;;;;;;;28.65;41.22;101792.44;5022598;28;119830;-71
2021/06/26 10:14:11;;;;;;;19.63;12.52;;;;;;;28.73;40.59;101799.78;5028380;28;124176;-71
2021/06/26 10:16:40;;;;;;;20.88;14.30;;;;;;;28.77;40.04;101803.03;5027989;28;124800;-71
2021/06/26 10:19:11;;;;;;;21.25;15.35;;;;;;;28.81;40.21;101799.78;5013984;28;118770;-68
2021/06/26 10:21:40;;;;;;;23.05;15.23;;;;;;;28.85;40.07;101801.16;5017879;28;119167;-68
2021/06/26 10:24:11;;;;;;;20.65;14.10;;;;;;;28.88;40.89;101798.13;5013214;28;124268;-68
2021/06/26 10:26:40;;;;;;;21.27;14.75;;;;;;;28.96;40.49;101793.72;5019720;28;124116;-68
2021/06/26 10:29:07;;;;;;;20.27;14.02;;;;;;;29.03;40.49;101792.03;5002214;28;118433;-68
2021/06/26 10:31:40;;;;;;;18.33;13.45;;;;;;;29.11;40.61;101789.31;5018757;28;119047;-68
2021/06/26 10:34:15;;;;;;;19.25;13.77;;;;;;;29.20;40.86;101780.13;5027213;28;124748;-69
2021/06/26 10:36:46;;;;;;;;;;;;;;;29.23;41.60;101782.50;5016927;28;124730;-68
2021/06/26 10:39:22;;;;;;;14.35;10.57;;;;;;;29.26;39.86;101782.19;5015691;28;120426;-68
2021/06/26 10:42:06;;;;;;;13.60;9.63;;;;;;;29.21;39.56;101773.63;5016880;28;120509;-68
2021/06/26 10:44:46;;;;;;;15.77;11.43;;;;;;;29.21;39.39;101779.09;4995536;28;123915;-68
2021/06/26 10:47:15;;;;;;;16.83;11.52;;;;;;;29.20;39.11;101782.88;5010977;28;122959;-69
2021/06/26 10:49:43;;;;;;;18.27;13.00;;;;;;;29.22;38.77;101786.28;5024401;28;120137;-68
2021/06/26 10:52:19;;;;;;;17.55;13.07;;;;;;;29.26;38.52;101782.19;5021535;28;119331;-68
2021/06/26 10:54:57;;;;;;;16.80;11.98;;;;;;;29.31;38.43;101777.06;5014204;28;123313;-68
2021/06/26 10:57:26;;;;;;;16.55;12.38;;;;;;;29.36;38.99;101776.56;5020945;28;123902;-68
2021/06/26 10:59:58;;;;;;;16.48;11.20;;;;;;;29.44;38.88;101781.16;5022996;28;119808;-68
2021/06/26 11:02:41;;;;;;;18.80;11.50;;;;;;;29.53;38.77;101780.13;5020455;28;119361;-68
2021/06/26 11:05:10;;;;;;;17.95;12.05;;;;;;;29.63;38.09;101783.56;5029265;28;124068;-68
2021/06/26 11:07:38;;;;;;;17.67;12.35;;;;;;;29.64;37.58;101779.78;5025755;28;124123;-68
2021/06/26 11:10:07;;;;;;;18.25;12.60;;;;;;;29.67;37.51;101784.06;5024970;28;119475;-68